ADDS TAF Board (Experimental) INFO

IDs: Format: Expanded Condensed

Updated at: 1609 UTC 31 Jan 2015

KSEA - Seattle-Tacoma Intl, WA, US

Issued at 1416 UTC 31 Jan 2015
Time1553Z31/17Z31/18Z31/19Z31/20Z31/21Z31/22Z31/23Z01/00Z01/01Z01/02Z01/03Z01/04Z01/05Z
TypeOBSPRVLPRVLPRVLPRVLPRVLPRVLPRVLPRVLPRVLPRVLPRVLPRVLPRVL
VIS0.250.250.250.252266666666
CIG111122200200200200200200200200
CoverOVXOVXOVXOVXBKNBKNBKNBKNBKNBKNBKNBKNBKNBKN
FltCatLIFRLIFRLIFRLIFRLIFRLIFRVFRVFRVFRVFRVFRVFRVFRVFR
WXFGFGFGFGBRBRHZHZHZHZHZHZHZHZ
WDir360303030VRBVRBVRBVRBVRBVRBVRBVRBVRBVRB
WSpd53333333333333
WGst----------------------------
R16/34
XWnd-0111VRBVRBVRBVRBVRBVRBVRBVRBVRBVRB
HWnd-5-3-3-3VRBVRBVRBVRBVRBVRBVRBVRBVRBVRB
Raw TAF
KSEA 311416Z 3114/0118 03003KT 1/4SM FG VV001
  FM312000 VRB03KT 2SM BR BKN002
  FM312200 VRB03KT 6SM HZ BKN200
  FM011000 VRB03KT P6SM OVC100
  FM011700 14006KT P6SM -RA BKN045 OVC070


Raw METAR
KSEA 311553Z 36005KT 1/4SM R16L/0800V1000FT FG VV001 04/03 A3024 RMK AO2 SLP250 T00390033

TAF Board Legend

Hazard VFR MVFR IFR LIFR
Visibility (sm) >5 3≤X≤5 1≤X<3 <1
Ceiling (100 ft) >30 10≤X≤30 5≤X<10 <5
Wind Speed (kt) <10 10≤X<20 20≤X<30 ≥30
Wind Gust (kt) <15 15≤X<25 25≤X<35 ≥35
Weather No Wx Reported VCTS,-TS,-FZRA TS,FZRA +TS,+FZRA


Page loaded:  16:09 UTC  |   08:09 AM Pacific  |   09:09 AM Mountain  |   10:09 AM Central  |   11:09 AM Eastern

 

ADVISORIES

FORECASTS

FORECASTS

OBSERVATIONS

USER TOOLS

ABOUT US